| time (UTC) | temp F | wind direction | speed MPH | gust MPH | rain 1hr in | rain 24hr in | rain mn in | humidity % | barometer mb |
| 20260903020336 | 83 | 301 | 2.0 | 4.0 | 0.00 | 0.00 | 0.00 | 85 | 1015.1 |
| 20260903015827 | 83 | 282 | 1.0 | 4.0 | 0.00 | 0.00 | 0.00 | 85 | 1015.1 |
| 20260903015318 | 83 | 137 | 0.0 | 3.0 | 0.00 | 0.00 | 0.00 | 85 | 1015.1 |
| 20260903014849 | 83 | 276 | 0.0 | 4.0 | 0.00 | 0.00 | 0.00 | 85 | 1015.0 |
| 20260903014322 | 83 | 297 | 1.0 | 4.0 | 0.00 | 0.00 | 0.00 | 85 | 1014.9 |
| 20260903013817 | 83 | 263 | 0.0 | 4.0 | 0.00 | 0.00 | 0.00 | 85 | 1014.8 |
| 20260903013328 | 83 | 194 | 2.0 | 4.0 | 0.00 | 0.00 | 0.00 | 85 | 1014.9 |
| 20260903012822 | 83 | 268 | 1.0 | 3.0 | 0.00 | 0.00 | 0.00 | 85 | 1014.8 |
| 20260903012320 | 83 | 259 | 0.0 | 2.0 | 0.00 | 0.00 | 0.00 | 85 | 1014.8 |
| 20260903011831 | 84 | 265 | 1.0 | 2.0 | 0.00 | 0.00 | 0.00 | 85 | 1014.7 |
| 20260903011325 | 84 | 6 | 1.0 | 2.0 | 0.00 | 0.00 | 0.00 | 85 | 1014.7 |
| 20260903010840 | 84 | 91 | 0.0 | 2.0 | 0.00 | 0.00 | 0.00 | 85 | 1014.6 |
| 20260903010316 | 84 | 94 | 0.0 | 2.0 | 0.00 | 0.00 | 0.00 | 84 | 1014.5 |
| 20260903005830 | 84 | 177 | 0.0 | 3.0 | 0.00 | 0.00 | 0.00 | 84 | 1014.5 |
| 20260903005321 | 84 | 141 | 1.0 | 3.0 | 0.00 | 0.00 | 0.00 | 84 | 1014.5 |
| 20260903004831 | 85 | 142 | 1.0 | 2.0 | 0.00 | 0.00 | 0.00 | 83 | 1014.5 |
| 20260903004327 | 85 | 162 | 0.0 | 1.0 | 0.00 | 0.00 | 0.00 | 83 | 1014.4 |
| 20260903003840 | 85 | 141 | 0.0 | 1.0 | 0.00 | 0.00 | 0.00 | 82 | 1014.3 |
| 20260903003332 | 86 | 262 | 0.0 | 1.0 | 0.00 | 0.00 | 0.00 | 81 | 1014.3 |
| 20260903002823 | 86 | 257 | 0.0 | 1.0 | 0.00 | 0.00 | 0.00 | 81 | 1014.4 |
| 20260903002335 | 86 | 183 | 0.0 | 2.0 | 0.00 | 0.00 | 0.00 | 80 | 1014.3 |
| 20260903001826 | 86 | 116 | 0.0 | 5.0 | 0.00 | 0.00 | 0.00 | 80 | 1014.4 |
| 20260903001316 | 87 | 68 | 1.0 | 5.0 | 0.00 | 0.00 | 0.00 | 79 | 1014.4 |
| 20260903000828 | 87 | 313 | 0.0 | 5.0 | 0.00 | 0.00 | 0.00 | 79 | 1014.4 |
| 20260903000342 | 87 | 266 | 1.0 | 4.0 | 0.00 | 0.00 | 0.00 | 78 | 1014.5 |
| 20260902235832 | 87 | 172 | 1.0 | 4.0 | 0.00 | 0.00 | 0.00 | 78 | 1014.5 |
| 20260902235346 | 88 | 292 | 0.0 | 4.0 | 0.00 | 0.00 | 0.00 | 77 | 1014.4 |
| 20260902234817 | 88 | 197 | 2.0 | 5.0 | 0.00 | 0.00 | 0.00 | 77 | 1014.4 |
| 20260902234327 | 89 | 264 | 1.0 | 5.0 | 0.00 | 0.00 | 0.00 | 76 | 1014.4 |
| 20260902233844 | 89 | 266 | 1.0 | 5.0 | 0.00 | 0.00 | 0.00 | 76 | 1014.4 |
| 20260902233354 | 90 | 168 | 1.0 | 5.0 | 0.00 | 0.00 | 0.00 | 75 | 1014.5 |
| 20260902232824 | 90 | 274 | 1.0 | 4.0 | 0.00 | 0.00 | 0.00 | 75 | 1014.5 |
| 20260902232335 | 90 | 275 | 1.0 | 5.0 | 0.00 | 0.00 | 0.00 | 74 | 1014.4 |
| 20260902231846 | 90 | 112 | 1.0 | 6.0 | 0.00 | 0.00 | 0.00 | 74 | 1014.5 |
| 20260902231339 | 91 | 335 | 1.0 | 6.0 | 0.00 | 0.00 | 0.00 | 73 | 1014.5 |
| 20260902230830 | 91 | 254 | 2.0 | 5.0 | 0.00 | 0.00 | 0.00 | 72 | 1014.5 |
| 20260902230320 | 91 | 228 | 2.0 | 5.0 | 0.00 | 0.00 | 0.00 | 72 | 1014.6 |
| 20260902225815 | 92 | 271 | 2.0 | 5.0 | 0.00 | 0.00 | 0.00 | 71 | 1014.6 |
| 20260902225330 | 92 | 73 | 1.0 | 4.0 | 0.00 | 0.00 | 0.00 | 72 | 1014.6 |
| 20260902224820 | 92 | 289 | 1.0 | 4.0 | 0.00 | 0.00 | 0.00 | 72 | 1014.7 |
| 20260902224332 | 92 | 53 | 1.0 | 6.0 | 0.00 | 0.00 | 0.00 | 72 | 1014.6 |
| 20260902223824 | 92 | 184 | 1.0 | 6.0 | 0.00 | 0.00 | 0.00 | 71 | 1014.6 |
| 20260902223318 | 92 | 268 | 2.0 | 4.0 | 0.00 | 0.00 | 0.00 | 71 | 1014.7 |
| 20260902222832 | 92 | 274 | 1.0 | 4.0 | 0.00 | 0.00 | 0.00 | 71 | 1014.7 |
| 20260902222326 | 93 | 162 | 2.0 | 4.0 | 0.00 | 0.00 | 0.00 | 70 | 1014.7 |
| 20260902221820 | 93 | 172 | 1.0 | 4.0 | 0.00 | 0.00 | 0.00 | 70 | 1014.7 |
| 20260902221332 | 93 | 294 | 1.0 | 5.0 | 0.00 | 0.00 | 0.00 | 70 | 1014.7 |
| 20260902220824 | 93 | 135 | 1.0 | 6.0 | 0.00 | 0.00 | 0.00 | 69 | 1014.6 |
| 20260902220334 | 93 | 158 | 2.0 | 6.0 | 0.00 | 0.00 | 0.00 | 69 | 1014.6 |
| 20260902215825 | 93 | 244 | 3.0 | 5.0 | 0.00 | 0.00 | 0.00 | 68 | 1014.7 |
| 20260902215337 | 93 | 273 | 2.0 | 5.0 | 0.00 | 0.00 | 0.00 | 69 | 1014.8 |
| 20260902214829 | 92 | 268 | 3.0 | 7.0 | 0.00 | 0.00 | 0.00 | 68 | 1014.8 |
| 20260902214321 | 92 | 323 | 4.0 | 8.0 | 0.00 | 0.00 | 0.00 | 69 | 1014.8 |
| 20260902213819 | 92 | 255 | 4.0 | 8.0 | 0.00 | 0.00 | 0.00 | 68 | 1014.8 |
| 20260902213335 | 93 | 253 | 3.0 | 7.0 | 0.00 | 0.00 | 0.00 | 69 | 1014.8 |
| 20260902212826 | 93 | 235 | 4.0 | 7.0 | 0.00 | 0.00 | 0.00 | 70 | 1014.8 |
| 20260902212338 | 93 | 266 | 2.0 | 6.0 | 0.00 | 0.00 | 0.00 | 70 | 1014.8 |
| 20260902211828 | 93 | 256 | 2.0 | 7.0 | 0.00 | 0.00 | 0.00 | 70 | 1014.8 |
| 20260902211322 | 93 | 262 | 4.0 | 7.0 | 0.00 | 0.00 | 0.00 | 69 | 1014.8 |
| 20260902210838 | 93 | 318 | 4.0 | 6.0 | 0.00 | 0.00 | 0.00 | 69 | 1014.8 |
| 20260902210327 | 93 | 291 | 3.0 | 9.0 | 0.00 | 0.00 | 0.00 | 69 | 1014.9 |
| 20260902205822 | 93 | 254 | 4.0 | 9.0 | 0.00 | 0.00 | 0.00 | 68 | 1014.9 |
| 20260902205319 | 93 | 256 | 3.0 | 9.0 | 0.00 | 0.00 | 0.00 | 68 | 1015.0 |
| 20260902204830 | 93 | 284 | 3.0 | 7.0 | 0.00 | 0.00 | 0.00 | 69 | 1014.9 |
| 20260902204325 | 93 | 266 | 3.0 | 6.0 | 0.00 | 0.00 | 0.00 | 68 | 1015.0 |
| 20260902203819 | 93 | 298 | 1.0 | 5.0 | 0.00 | 0.00 | 0.00 | 71 | 1015.0 |
| 20260902203336 | 93 | 277 | 3.0 | 7.0 | 0.00 | 0.00 | 0.00 | 69 | 1015.0 |
| 20260902202826 | 93 | 320 | 4.0 | 7.0 | 0.00 | 0.00 | 0.00 | 68 | 1015.1 |
| 20260902202317 | 93 | 283 | 3.0 | 9.0 | 0.00 | 0.00 | 0.00 | 68 | 1015.1 |
| 20260902201828 | 93 | 296 | 4.0 | 9.0 | 0.00 | 0.00 | 0.00 | 67 | 1015.1 |
| 20260902201323 | 93 | 279 | 3.0 | 7.0 | 0.00 | 0.00 | 0.00 | 67 | 1015.2 |
| 20260902200836 | 93 | 279 | 3.0 | 6.0 | 0.00 | 0.00 | 0.00 | 70 | 1015.3 |
| 20260902200326 | 93 | 250 | 3.0 | 6.0 | 0.00 | 0.00 | 0.00 | 69 | 1015.3 |
| 20260902195817 | 93 | 222 | 3.0 | 6.0 | 0.00 | 0.00 | 0.00 | 68 | 1015.4 |
| 20260902195328 | 93 | 256 | 3.0 | 7.0 | 0.00 | 0.00 | 0.00 | 68 | 1015.4 |
| 20260902194819 | 93 | 260 | 4.0 | 7.0 | 0.00 | 0.00 | 0.00 | 68 | 1015.5 |
| 20260902194331 | 93 | 313 | 3.0 | 5.0 | 0.00 | 0.00 | 0.00 | 68 | 1015.4 |
| 20260902193826 | 93 | 151 | 3.0 | 8.0 | 0.00 | 0.00 | 0.00 | 70 | 1015.5 |
| 20260902193356 | 92 | 293 | 1.0 | 8.0 | 0.00 | 0.00 | 0.00 | 74 | 1015.6 |
| 20260902192830 | 92 | 251 | 4.0 | 8.0 | 0.00 | 0.00 | 0.00 | 69 | 1015.6 |
| 20260902192324 | 92 | 258 | 4.0 | 8.0 | 0.00 | 0.00 | 0.00 | 69 | 1015.6 |
| 20260902191818 | 92 | 291 | 2.0 | 8.0 | 0.00 | 0.00 | 0.00 | 70 | 1015.7 |
| 20260902191332 | 92 | 233 | 4.0 | 7.0 | 0.00 | 0.00 | 0.00 | 70 | 1015.7 |
| 20260902190846 | 92 | 255 | 4.0 | 6.0 | 0.00 | 0.00 | 0.00 | 68 | 1015.7 |
| 20260902190318 | 92 | 312 | 1.0 | 6.0 | 0.00 | 0.00 | 0.00 | 72 | 1015.7 |
| 20260902185832 | 92 | 43 | 2.0 | 6.0 | 0.00 | 0.00 | 0.00 | 74 | 1015.8 |
| 20260902185323 | 92 | 154 | 2.0 | 8.0 | 0.00 | 0.00 | 0.00 | 74 | 1015.8 |
| 20260902184818 | 92 | 164 | 3.0 | 8.0 | 0.00 | 0.00 | 0.00 | 71 | 1015.8 |
| 20260902184331 | 92 | 148 | 3.0 | 7.0 | 0.00 | 0.00 | 0.00 | 70 | 1015.8 |
| 20260902183824 | 92 | 241 | 3.0 | 5.0 | 0.00 | 0.00 | 0.00 | 71 | 1015.8 |
| 20260902183334 | 92 | 114 | 2.0 | 8.0 | 0.00 | 0.00 | 0.00 | 73 | 1015.8 |
| 20260902182845 | 92 | 136 | 3.0 | 8.0 | 0.00 | 0.00 | 0.00 | 72 | 1015.8 |
| 20260902182318 | 92 | 267 | 2.0 | 7.0 | 0.00 | 0.00 | 0.00 | 71 | 1015.7 |
| 20260902181832 | 92 | 227 | 2.0 | 11.0 | 0.00 | 0.00 | 0.00 | 72 | 1015.8 |
| 20260902181323 | 92 | 54 | 2.0 | 11.0 | 0.00 | 0.00 | 0.00 | 75 | 1015.7 |
| 20260902180836 | 92 | 323 | 1.0 | 5.0 | 0.00 | 0.00 | 0.00 | 73 | 1015.8 |
| 20260902180326 | 92 | 342 | 2.0 | 5.0 | 0.00 | 0.00 | 0.00 | 74 | 1015.8 |
| 20260902175821 | 92 | 141 | 1.0 | 5.0 | 0.00 | 0.00 | 0.00 | 73 | 1015.9 |
| 20260902175335 | 92 | 272 | 2.0 | 4.0 | 0.00 | 0.00 | 0.00 | 71 | 1015.9 |
| 20260902174826 | 92 | 112 | 2.0 | 4.0 | 0.00 | 0.00 | 0.00 | 74 | 1015.9 |
| 20260902174337 | 92 | 138 | 1.0 | 4.0 | 0.00 | 0.00 | 0.00 | 72 | 1016.0 |
| 20260902173828 | 92 | 210 | 2.0 | 4.0 | 0.00 | 0.00 | 0.00 | 75 | 1016.1 |
| 20260902173324 | 92 | 210 | 2.0 | 5.0 | 0.00 | 0.00 | 0.00 | 72 | 1016.1 |
| 20260902172817 | 91 | 189 | 1.0 | 5.0 | 0.00 | 0.00 | 0.00 | 73 | 1016.2 |
| 20260902172328 | 91 | 143 | 2.0 | 4.0 | 0.00 | 0.00 | 0.00 | 73 | 1016.3 |
| 20260902171819 | 91 | 238 | 1.0 | 4.0 | 0.00 | 0.00 | 0.00 | 72 | 1016.3 |
| 20260902171334 | 91 | 288 | 3.0 | 4.0 | 0.00 | 0.00 | 0.00 | 70 | 1016.3 |
| 20260902170827 | 91 | 138 | 1.0 | 4.0 | 0.00 | 0.00 | 0.00 | 73 | 1016.3 |
| 20260902170317 | 91 | 129 | 2.0 | 3.0 | 0.00 | 0.00 | 0.00 | 74 | 1016.4 |
| 20260902165828 | 91 | 208 | 1.0 | 4.0 | 0.00 | 0.00 | 0.00 | 76 | 1016.4 |
| 20260902165319 | 91 | 311 | 1.0 | 4.0 | 0.00 | 0.00 | 0.00 | 73 | 1016.4 |
| 20260902164829 | 91 | 42 | 1.0 | 4.0 | 0.00 | 0.00 | 0.00 | 75 | 1016.4 |
| 20260902164320 | 90 | 237 | 1.0 | 4.0 | 0.00 | 0.00 | 0.00 | 75 | 1016.4 |
| 20260902163813 | 90 | 240 | 1.0 | 3.0 | 0.00 | 0.00 | 0.00 | 74 | 1016.4 |
| 20260902163329 | 90 | 136 | 2.0 | 3.0 | 0.00 | 0.00 | 0.00 | 77 | 1016.5 |
| 20260902162824 | 89 | 257 | 2.0 | 4.0 | 0.00 | 0.00 | 0.00 | 73 | 1016.5 |
| 20260902162318 | 89 | 265 | 2.0 | 5.0 | 0.00 | 0.00 | 0.00 | 72 | 1016.6 |
| 20260902161832 | 88 | 269 | 2.0 | 5.0 | 0.00 | 0.00 | 0.00 | 75 | 1016.7 |
| 20260902161323 | 88 | 246 | 1.0 | 5.0 | 0.00 | 0.00 | 0.00 | 75 | 1016.7 |
| 20260902160836 | 88 | 256 | 2.0 | 6.0 | 0.00 | 0.00 | 0.00 | 75 | 1016.7 |
| 20260902160326 | 88 | 303 | 2.0 | 6.0 | 0.00 | 0.00 | 0.00 | 76 | 1016.8 |
| 20260902155817 | 87 | 305 | 4.0 | 7.0 | 0.00 | 0.00 | 0.00 | 74 | 1016.8 |
| 20260902155328 | 87 | 298 | 3.0 | 7.0 | 0.00 | 0.00 | 0.00 | 76 | 1016.8 |
| 20260902154823 | 87 | 253 | 3.0 | 7.0 | 0.00 | 0.00 | 0.00 | 74 | 1016.9 |
| 20260902154334 | 87 | 258 | 2.0 | 6.0 | 0.00 | 0.00 | 0.00 | 76 | 1016.9 |
| 20260902153827 | 87 | 299 | 3.0 | 6.0 | 0.00 | 0.00 | 0.00 | 74 | 1016.9 |
| 20260902153317 | 87 | 324 | 4.0 | 6.0 | 0.00 | 0.00 | 0.00 | 75 | 1016.9 |
| 20260902152828 | 87 | 255 | 3.0 | 6.0 | 0.00 | 0.00 | 0.00 | 74 | 1016.9 |
| 20260902152339 | 86 | 278 | 3.0 | 6.0 | 0.00 | 0.00 | 0.00 | 75 | 1016.8 |
| 20260902151853 | 86 | 260 | 3.0 | 6.0 | 0.00 | 0.00 | 0.00 | 76 | 1016.8 |
| 20260902151323 | 86 | 156 | 3.0 | 6.0 | 0.00 | 0.00 | 0.00 | 77 | 1016.8 |
| 20260902150815 | 86 | 305 | 2.0 | 7.0 | 0.00 | 0.00 | 0.00 | 78 | 1016.9 |
| 20260902150316 | 86 | 299 | 3.0 | 7.0 | 0.00 | 0.01 | 0.00 | 76 | 1016.9 |
| 20260902145827 | 86 | 253 | 2.0 | 5.0 | 0.00 | 0.01 | 0.00 | 77 | 1016.8 |
| 20260902145321 | 85 | 284 | 3.0 | 6.0 | 0.00 | 0.01 | 0.00 | 77 | 1016.8 |
| 20260902144815 | 85 | 287 | 3.0 | 8.0 | 0.00 | 0.01 | 0.00 | 77 | 1016.8 |
| 20260902144329 | 85 | 264 | 4.0 | 8.0 | 0.00 | 0.01 | 0.00 | 77 | 1016.8 |
| 20260902143821 | 85 | 262 | 3.0 | 7.0 | 0.00 | 0.01 | 0.00 | 78 | 1016.8 |
| 20260902143335 | 84 | 305 | 3.0 | 7.0 | 0.00 | 0.01 | 0.00 | 78 | 1016.8 |
| 20260902142826 | 84 | 301 | 2.0 | 6.0 | 0.00 | 0.01 | 0.00 | 79 | 1016.8 |
| 20260902142341 | 84 | 262 | 3.0 | 7.0 | 0.00 | 0.01 | 0.00 | 77 | 1016.8 |
| 20260902141831 | 84 | 312 | 3.0 | 7.0 | 0.00 | 0.01 | 0.00 | 78 | 1016.7 |
| 20260902141322 | 84 | 261 | 2.0 | 5.0 | 0.00 | 0.01 | 0.00 | 78 | 1016.7 |
| 20260902140855 | 83 | 268 | 3.0 | 7.0 | 0.00 | 0.01 | 0.00 | 78 | 1016.7 |
| 20260902140325 | 83 | 265 | 4.0 | 7.0 | 0.00 | 0.03 | 0.00 | 78 | 1016.7 |
| 20260902135816 | 83 | 312 | 3.0 | 5.0 | 0.00 | 0.03 | 0.00 | 79 | 1016.7 |
| 20260902135327 | 83 | 302 | 1.0 | 6.0 | 0.00 | 0.03 | 0.00 | 79 | 1016.6 |
| 20260902134821 | 82 | 271 | 2.0 | 6.0 | 0.00 | 0.03 | 0.00 | 79 | 1016.7 |
| 20260902134315 | 82 | 251 | 2.0 | 6.0 | 0.00 | 0.03 | 0.00 | 80 | 1016.7 |
| 20260902133830 | 82 | 264 | 2.0 | 6.0 | 0.00 | 0.03 | 0.00 | 80 | 1016.7 |
| 20260902133324 | 82 | 322 | 2.0 | 6.0 | 0.00 | 0.03 | 0.00 | 80 | 1016.7 |
| 20260902132818 | 81 | 316 | 2.0 | 7.0 | 0.00 | 0.03 | 0.00 | 81 | 1016.7 |
| 20260902132332 | 81 | 294 | 4.0 | 7.0 | 0.00 | 0.03 | 0.00 | 81 | 1016.8 |
| 20260902131823 | 80 | 286 | 3.0 | 6.0 | 0.00 | 0.03 | 0.00 | 82 | 1016.8 |
| 20260902131334 | 80 | 278 | 3.0 | 6.0 | 0.00 | 0.03 | 0.00 | 83 | 1016.9 |
| 20260902130827 | 80 | 278 | 2.0 | 8.0 | 0.00 | 0.03 | 0.00 | 84 | 1017.0 |
| 20260902130317 | 79 | 273 | 2.0 | 8.0 | 0.00 | 0.09 | 0.00 | 84 | 1017.0 |
| 20260902125828 | 79 | 249 | 2.0 | 6.0 | 0.00 | 0.09 | 0.00 | 86 | 1017.0 |
| 20260902125323 | 78 | 268 | 2.0 | 6.0 | 0.00 | 0.09 | 0.00 | 87 | 1017.0 |
| 20260902124834 | 78 | 274 | 3.0 | 6.0 | 0.00 | 0.09 | 0.00 | 88 | 1017.1 |
| 20260902124325 | 77 | 328 | 1.0 | 4.0 | 0.00 | 0.09 | 0.00 | 89 | 1017.0 |
| 20260902123817 | 76 | 299 | 1.0 | 4.0 | 0.00 | 0.09 | 0.00 | 91 | 1017.0 |
| 20260902123328 | 76 | 259 | 0.0 | 3.0 | 0.00 | 0.09 | 0.00 | 93 | 1017.0 |
| 20260902122819 | 75 | 312 | 1.0 | 4.0 | 0.00 | 0.09 | 0.00 | 94 | 1017.2 |
| 20260902122330 | 74 | 276 | 1.0 | 4.0 | 0.00 | 0.09 | 0.00 | 96 | 1017.2 |
| 20260902121824 | 74 | 287 | 0.0 | 2.0 | 0.00 | 0.09 | 0.00 | 97 | 1017.1 |
| 20260902121322 | 74 | 326 | 0.0 | 1.0 | 0.00 | 0.09 | 0.00 | 97 | 1017.2 |
| 20260902120834 | 73 | 349 | 0.0 | 1.0 | 0.00 | 0.09 | 0.00 | 98 | 1017.2 |
| 20260902120325 | 73 | 111 | 0.0 | 1.0 | 0.00 | 0.13 | 0.00 | 98 | 1017.2 |
| 20260902115816 | 73 | 111 | 0.0 | 1.0 | 0.00 | 0.13 | 0.00 | 98 | 1017.1 |
| 20260902115327 | 73 | 111 | 0.0 | 1.0 | 0.00 | 0.13 | 0.00 | 98 | 1017.1 |
| 20260902114821 | 72 | 111 | 0.0 | 1.0 | 0.00 | 0.13 | 0.00 | 98 | 1017.1 |
| 20260902114335 | 72 | 111 | 0.0 | 1.0 | 0.00 | 0.13 | 0.00 | 98 | 1017.0 |
| 20260902113827 | 72 | 90 | 0.0 | 0.0 | 0.00 | 0.13 | 0.00 | 98 | 1017.0 |
| 20260902113328 | 72 | 90 | 0.0 | 1.0 | 0.00 | 0.13 | 0.00 | 98 | 1016.9 |
| 20260902112819 | 72 | 90 | 0.0 | 1.0 | 0.00 | 0.13 | 0.00 | 98 | 1016.9 |
| 20260902112330 | 72 | 90 | 0.0 | 1.0 | 0.00 | 0.13 | 0.00 | 98 | 1016.9 |
| 20260902111824 | 72 | 90 | 0.0 | 0.0 | 0.00 | 0.13 | 0.00 | 98 | 1016.8 |
| 20260902111338 | 72 | 90 | 0.0 | 0.0 | 0.00 | 0.13 | 0.00 | 98 | 1016.8 |
| 20260902110829 | 72 | 104 | 0.0 | 2.0 | 0.00 | 0.13 | 0.00 | 97 | 1016.8 |
| 20260902110320 | 72 | 104 | 0.0 | 2.0 | 0.00 | 0.13 | 0.00 | 97 | 1016.7 |
| 20260902105831 | 72 | 339 | 0.0 | 0.0 | 0.00 | 0.13 | 0.00 | 97 | 1016.7 |
| 20260902105322 | 72 | 339 | 0.0 | 0.0 | 0.00 | 0.13 | 0.00 | 97 | 1016.7 |
| 20260902104817 | 72 | 339 | 0.0 | 0.0 | 0.00 | 0.13 | 0.00 | 97 | 1016.7 |
| 20260902104328 | 72 | 339 | 0.0 | 0.0 | 0.00 | 0.13 | 0.00 | 96 | 1016.7 |
| 20260902103820 | 72 | 339 | 0.0 | 0.0 | 0.00 | 0.13 | 0.00 | 96 | 1016.7 |
| 20260902103351 | 72 | 339 | 0.0 | 1.0 | 0.00 | 0.13 | 0.00 | 96 | 1016.6 |
| 20260902102824 | 73 | 339 | 0.0 | 1.0 | 0.00 | 0.13 | 0.00 | 96 | 1016.5 |
| 20260902102318 | 73 | 339 | 0.0 | 0.0 | 0.00 | 0.13 | 0.00 | 96 | 1016.5 |
| 20260902101832 | 73 | 339 | 0.0 | 0.0 | 0.00 | 0.13 | 0.00 | 96 | 1016.5 |
| 20260902101323 | 73 | 339 | 0.0 | 0.0 | 0.00 | 0.13 | 0.00 | 96 | 1016.4 |
| 20260902100819 | 73 | 339 | 0.0 | 0.0 | 0.00 | 0.13 | 0.00 | 96 | 1016.4 |
| 20260902100330 | 73 | 339 | 0.0 | 0.0 | 0.00 | 0.13 | 0.00 | 96 | 1016.3 |
| 20260902095824 | 73 | 339 | 0.0 | 1.0 | 0.00 | 0.13 | 0.00 | 96 | 1016.4 |
| 20260902095338 | 74 | 339 | 0.0 | 1.0 | 0.00 | 0.13 | 0.00 | 96 | 1016.3 |
| 20260902094849 | 74 | 339 | 0.0 | 0.0 | 0.00 | 0.13 | 0.00 | 96 | 1016.4 |
| 20260902094322 | 74 | 339 | 0.0 | 0.0 | 0.00 | 0.13 | 0.00 | 96 | 1016.3 |
| 20260902093834 | 74 | 339 | 0.0 | 0.0 | 0.00 | 0.13 | 0.00 | 96 | 1016.2 |
| 20260902093325 | 74 | 339 | 0.0 | 0.0 | 0.00 | 0.13 | 0.00 | 96 | 1016.2 |
| 20260902092856 | 74 | 339 | 0.0 | 0.0 | 0.00 | 0.13 | 0.00 | 96 | 1016.2 |
| 20260902092326 | 74 | 339 | 0.0 | 0.0 | 0.00 | 0.13 | 0.00 | 96 | 1016.2 |
| 20260902091821 | 74 | 339 | 0.0 | 0.0 | 0.00 | 0.13 | 0.00 | 96 | 1016.2 |
| 20260902091335 | 74 | 339 | 0.0 | 0.0 | 0.00 | 0.13 | 0.00 | 95 | 1016.2 |
| 20260902090827 | 74 | 339 | 0.0 | 0.0 | 0.00 | 0.13 | 0.00 | 94 | 1016.2 |
| 20260902090321 | 74 | 339 | 0.0 | 0.0 | 0.00 | 0.13 | 0.00 | 94 | 1016.3 |
| 20260902085835 | 74 | 339 | 0.0 | 0.0 | 0.00 | 0.13 | 0.00 | 94 | 1016.1 |
| 20260902085326 | 75 | 339 | 0.0 | 0.0 | 0.00 | 0.13 | 0.00 | 94 | 1016.2 |
| 20260902084817 | 75 | 339 | 0.0 | 0.0 | 0.00 | 0.13 | 0.00 | 94 | 1016.1 |
| 20260902084328 | 75 | 339 | 0.0 | 0.0 | 0.00 | 0.13 | 0.00 | 94 | 1016.1 |
| 20260902083824 | 75 | 339 | 0.0 | 0.0 | 0.00 | 0.13 | 0.00 | 94 | 1016.1 |
| 20260902083321 | 75 | 339 | 0.0 | 0.0 | 0.00 | 0.13 | 0.00 | 94 | 1016.1 |
| 20260902082835 | 75 | 334 | 0.0 | 0.0 | 0.00 | 0.13 | 0.00 | 94 | 1016.2 |
| 20260902082326 | 75 | 334 | 0.0 | 0.0 | 0.00 | 0.13 | 0.00 | 93 | 1016.2 |
| 20260902081817 | 75 | 334 | 0.0 | 0.0 | 0.00 | 0.13 | 0.00 | 93 | 1016.3 |
| 20260902081328 | 76 | 334 | 0.0 | 0.0 | 0.00 | 0.13 | 0.00 | 93 | 1016.3 |
| 20260902080820 | 76 | 334 | 0.0 | 1.0 | 0.00 | 0.13 | 0.00 | 94 | 1016.3 |
| 20260902080331 | 76 | 334 | 0.0 | 1.0 | 0.00 | 0.13 | 0.00 | 94 | 1016.3 |
| 20260902075842 | 76 | 335 | 0.0 | 1.0 | 0.00 | 0.13 | 0.00 | 93 | 1016.4 |
| 20260902075319 | 76 | 294 | 0.0 | 2.0 | 0.00 | 0.13 | 0.00 | 93 | 1016.3 |
| 20260902074830 | 76 | 304 | 0.0 | 2.0 | 0.00 | 0.13 | 0.00 | 94 | 1016.5 |
| 20260902074324 | 76 | 316 | 0.0 | 0.0 | 0.00 | 0.13 | 0.00 | 94 | 1016.4 |
| 20260902073818 | 76 | 318 | 0.0 | 0.0 | 0.00 | 0.13 | 0.00 | 94 | 1016.3 |
| 20260902073315 | 76 | 318 | 0.0 | 0.0 | 0.00 | 0.13 | 0.00 | 93 | 1016.2 |
| 20260902072829 | 76 | 318 | 0.0 | 0.0 | 0.00 | 0.13 | 0.00 | 94 | 1016.2 |
| 20260902072320 | 76 | 318 | 0.0 | 0.0 | 0.00 | 0.13 | 0.00 | 94 | 1016.2 |
| 20260902071815 | 76 | 318 | 0.0 | 1.0 | 0.00 | 0.13 | 0.00 | 94 | 1016.1 |
| 20260902071329 | 76 | 318 | 0.0 | 1.0 | 0.00 | 0.13 | 0.00 | 94 | 1016.1 |
| 20260902070821 | 76 | 277 | 0.0 | 1.0 | 0.00 | 0.13 | 0.00 | 94 | 1016.1 |
| 20260902070318 | 76 | 292 | 0.0 | 1.0 | 0.00 | 0.13 | 0.00 | 94 | 1016.1 |
| 20260902065832 | 76 | 323 | 0.0 | 1.0 | 0.00 | 0.13 | 0.00 | 93 | 1016.1 |
| 20260902065323 | 76 | 274 | 0.0 | 0.0 | 0.00 | 0.13 | 0.00 | 93 | 1016.1 |
| 20260902064834 | 77 | 274 | 0.0 | 0.0 | 0.00 | 0.13 | 0.00 | 92 | 1016.1 |
| 20260902064325 | 77 | 274 | 0.0 | 0.0 | 0.00 | 0.13 | 0.00 | 92 | 1016.1 |
| 20260902063821 | 77 | 274 | 0.0 | 0.0 | 0.00 | 0.13 | 0.00 | 92 | 1016.0 |
| 20260902063338 | 78 | 274 | 0.0 | 0.0 | 0.00 | 0.13 | 0.00 | 92 | 1016.0 |
| 20260902062848 | 78 | 274 | 0.0 | 0.0 | 0.00 | 0.13 | 0.00 | 91 | 1016.0 |
| 20260902062321 | 78 | 274 | 0.0 | 0.0 | 0.00 | 0.13 | 0.00 | 91 | 1016.0 |
| 20260902061835 | 78 | 274 | 0.0 | 0.0 | 0.00 | 0.13 | 0.00 | 91 | 1016.1 |
| 20260902061326 | 78 | 274 | 0.0 | 0.0 | 0.00 | 0.13 | 0.00 | 90 | 1016.1 |
| 20260902060818 | 79 | 274 | 0.0 | 1.0 | 0.00 | 0.13 | 0.00 | 90 | 1016.1 |
| 20260902060315 | 79 | 274 | 0.0 | 1.0 | 0.00 | 0.13 | 0.00 | 90 | 1016.1 |
| 20260902055829 | 79 | 303 | 0.0 | 0.0 | 0.00 | 0.13 | 0.00 | 90 | 1016.1 |
| 20260902055324 | 79 | 303 | 0.0 | 1.0 | 0.00 | 0.13 | 0.00 | 90 | 1016.2 |
| 20260902054818 | 80 | 280 | 0.0 | 1.0 | 0.00 | 0.13 | 0.00 | 89 | 1016.2 |
| 20260902054332 | 80 | 280 | 0.0 | 1.0 | 0.00 | 0.13 | 0.00 | 89 | 1016.2 |
| 20260902053824 | 80 | 318 | 0.0 | 1.0 | 0.00 | 0.13 | 0.00 | 89 | 1016.2 |
| 20260902053321 | 80 | 318 | 0.0 | 3.0 | 0.00 | 0.13 | 0.00 | 89 | 1016.2 |
| 20260902052835 | 80 | 318 | 0.0 | 3.0 | 0.00 | 0.13 | 0.00 | 89 | 1016.3 |
| 20260902052326 | 80 | 266 | 0.0 | 2.0 | 0.00 | 0.13 | 0.00 | 89 | 1016.3 |
| 20260902051817 | 80 | 253 | 1.0 | 2.0 | 0.00 | 0.13 | 0.00 | 89 | 1016.2 |
| 20260902051348 | 80 | 310 | 0.0 | 2.0 | 0.00 | 0.13 | 0.00 | 89 | 1016.2 |
| 20260902050826 | 80 | 302 | 0.0 | 2.0 | 0.00 | 0.13 | 0.00 | 89 | 1016.2 |
| 20260902050317 | 80 | 262 | 1.0 | 2.0 | 0.00 | 0.13 | 0.00 | 89 | 1016.2 |
| 20260902045828 | 80 | 158 | 0.0 | 2.0 | 0.00 | 0.13 | 0.00 | 89 | 1016.2 |
| 20260902045339 | 80 | 301 | 0.0 | 2.0 | 0.00 | 0.13 | 0.00 | 89 | 1016.2 |
| 20260902044832 | 80 | 276 | 1.0 | 3.0 | 0.00 | 0.13 | 0.00 | 89 | 1016.2 |
| 20260902044323 | 80 | 304 | 0.0 | 3.0 | 0.00 | 0.13 | 0.00 | 89 | 1016.2 |
| 20260902043836 | 80 | 308 | 1.0 | 3.0 | 0.00 | 0.13 | 0.00 | 90 | 1016.2 |
| 20260902043329 | 80 | 263 | 1.0 | 3.0 | 0.00 | 0.13 | 0.00 | 90 | 1016.2 |
| 20260902042820 | 80 | 265 | 0.0 | 1.0 | 0.00 | 0.13 | 0.00 | 90 | 1016.1 |
| 20260902042315 | 81 | 356 | 0.0 | 1.0 | 0.00 | 0.13 | 0.00 | 90 | 1016.1 |
| 20260902041829 | 81 | 305 | 0.0 | 3.0 | 0.00 | 0.13 | 0.00 | 90 | 1016.2 |
| 20260902041320 | 81 | 194 | 0.0 | 4.0 | 0.00 | 0.13 | 0.00 | 90 | 1016.1 |
| 20260902040812 | 81 | 337 | 1.0 | 4.0 | 0.00 | 0.13 | 0.00 | 90 | 1016.1 |
| 20260902040329 | 80 | 202 | 0.0 | 2.0 | 0.00 | 0.13 | 0.13 | 90 | 1016.1 |
| 20260902035840 | 81 | 276 | 0.0 | 1.0 | 0.00 | 0.13 | 0.13 | 90 | 1016.1 |
| 20260902035330 | 81 | 233 | 0.0 | 3.0 | 0.00 | 0.13 | 0.13 | 90 | 1016.1 |
| 20260902034824 | 81 | 228 | 0.0 | 3.0 | 0.00 | 0.13 | 0.13 | 90 | 1016.1 |
| 20260902034322 | 81 | 246 | 0.0 | 2.0 | 0.00 | 0.13 | 0.13 | 90 | 1016.1 |
| 20260902033834 | 81 | 328 | 0.0 | 3.0 | 0.00 | 0.13 | 0.13 | 91 | 1016.1 |
| 20260902033324 | 81 | 318 | 1.0 | 3.0 | 0.00 | 0.13 | 0.13 | 91 | 1016.1 |
| 20260902032841 | 81 | 239 | 0.0 | 2.0 | 0.00 | 0.13 | 0.13 | 91 | 1016.1 |
| 20260902032331 | 80 | 281 | 0.0 | 1.0 | 0.00 | 0.13 | 0.13 | 91 | 1016.1 |
| 20260902031822 | 81 | 211 | 0.0 | 3.0 | 0.00 | 0.13 | 0.13 | 91 | 1016.1 |
| 20260902031333 | 80 | 229 | 1.0 | 3.0 | 0.00 | 0.13 | 0.13 | 92 | 1016.1 |
| 20260902030828 | 80 | 260 | 0.0 | 3.0 | 0.00 | 0.13 | 0.13 | 92 | 1016.0 |
| 20260902030319 | 80 | 264 | 1.0 | 3.0 | 0.00 | 0.13 | 0.13 | 92 | 1016.0 |
| 20260902025834 | 80 | 303 | 0.0 | 3.0 | 0.00 | 0.13 | 0.13 | 93 | 1016.0 |
| 20260902025345 | 80 | 31 | 1.0 | 3.0 | 0.00 | 0.13 | 0.13 | 93 | 1016.0 |
| 20260902024818 | 80 | 110 | 0.0 | 2.0 | 0.00 | 0.13 | 0.13 | 93 | 1016.0 |
| 20260902024333 | 80 | 321 | 0.0 | 1.0 | 0.00 | 0.13 | 0.13 | 93 | 1016.0 |
| 20260902023830 | 80 | 322 | 0.0 | 1.0 | 0.00 | 0.13 | 0.13 | 93 | 1016.0 |
| 20260902023327 | 80 | 137 | 0.0 | 0.0 | 0.00 | 0.13 | 0.13 | 93 | 1016.0 |
| 20260902022821 | 80 | 137 | 0.0 | 0.0 | 0.00 | 0.13 | 0.13 | 93 | 1016.0 |
| 20260902022315 | 80 | 137 | 0.0 | 0.0 | 0.00 | 0.13 | 0.13 | 93 | 1016.0 |
| 20260902021829 | 80 | 137 | 0.0 | 0.0 | 0.00 | 0.13 | 0.13 | 92 | 1015.9 |
| 20260902021324 | 81 | 137 | 0.0 | 0.0 | 0.00 | 0.13 | 0.13 | 92 | 1015.9 |
| 20260902020819 | 81 | 137 | 0.0 | 0.0 | 0.00 | 0.13 | 0.13 | 92 | 1015.9 |